sensor_id;sensor_type;location;lat;lon;timestamp;pressure;altitude;pressure_sealevel;temperature;humidity
61035;BME280;46916;40.564;-7.958;2023-11-18T00:00:33;98284.91;;;15.40;100.00
61035;BME280;46916;40.564;-7.958;2023-11-18T00:02:34;98286.00;;;15.38;100.00
61035;BME280;46916;40.564;-7.958;2023-11-18T00:04:34;98278.25;;;15.36;100.00
61035;BME280;46916;40.564;-7.958;2023-11-18T00:06:35;98285.19;;;15.37;100.00
61035;BME280;46916;40.564;-7.958;2023-11-18T00:08:35;98281.88;;;15.35;100.00
61035;BME280;46916;40.564;-7.958;2023-11-18T00:10:36;98277.53;;;15.34;100.00
61035;BME280;46916;40.564;-7.958;2023-11-18T00:12:37;98276.88;;;15.32;100.00
61035;BME280;46916;40.564;-7.958;2023-11-18T00:14:41;98275.72;;;15.34;100.00
61035;BME280;46916;40.564;-7.958;2023-11-18T00:16:43;98275.63;;;15.36;100.00
61035;BME280;46916;40.564;-7.958;2023-11-18T00:18:43;98280.19;;;15.34;100.00
61035;BME280;46916;40.564;-7.958;2023-11-18T00:20:44;98267.97;;;15.33;100.00
61035;BME280;46916;40.564;-7.958;2023-11-18T00:22:46;98267.28;;;15.31;100.00
61035;BME280;46916;40.564;-7.958;2023-11-18T00:24:46;98271.69;;;15.30;100.00
61035;BME280;46916;40.564;-7.958;2023-11-18T00:26:47;98269.06;;;15.30;100.00
61035;BME280;46916;40.564;-7.958;2023-11-18T00:28:48;98266.56;;;15.29;100.00
61035;BME280;46916;40.564;-7.958;2023-11-18T00:30:51;98265.03;;;15.26;100.00
61035;BME280;46916;40.564;-7.958;2023-11-18T00:32:52;98259.06;;;15.24;100.00
61035;BME280;46916;40.564;-7.958;2023-11-18T00:34:53;98263.78;;;15.21;100.00
61035;BME280;46916;40.564;-7.958;2023-11-18T00:36:54;98259.34;;;15.21;100.00
61035;BME280;46916;40.564;-7.958;2023-11-18T00:38:54;98250.75;;;15.19;100.00
61035;BME280;46916;40.564;-7.958;2023-11-18T00:40:55;98256.31;;;15.16;100.00
61035;BME280;46916;40.564;-7.958;2023-11-18T00:42:56;98260.88;;;15.14;100.00
61035;BME280;46916;40.564;-7.958;2023-11-18T00:44:57;98258.53;;;15.11;100.00
61035;BME280;46916;40.564;-7.958;2023-11-18T00:46:57;98251.03;;;15.06;100.00
61035;BME280;46916;40.564;-7.958;2023-11-18T00:48:58;98249.22;;;15.07;100.00
61035;BME280;46916;40.564;-7.958;2023-11-18T00:50:59;98249.34;;;15.05;100.00
61035;BME280;46916;40.564;-7.958;2023-11-18T00:52:59;98243.38;;;15.03;100.00
61035;BME280;46916;40.564;-7.958;2023-11-18T00:55:00;98241.84;;;15.01;100.00
61035;BME280;46916;40.564;-7.958;2023-11-18T00:57:01;98243.25;;;14.95;100.00
61035;BME280;46916;40.564;-7.958;2023-11-18T00:59:02;98234.19;;;14.88;100.00
61035;BME280;46916;40.564;-7.958;2023-11-18T01:01:03;98234.34;;;14.86;100.00
61035;BME280;46916;40.564;-7.958;2023-11-18T01:03:04;98234.34;;;14.86;100.00
61035;BME280;46916;40.564;-7.958;2023-11-18T01:05:04;98230.59;;;14.89;100.00
61035;BME280;46916;40.564;-7.958;2023-11-18T01:07:05;98237.25;;;14.93;100.00
61035;BME280;46916;40.564;-7.958;2023-11-18T01:09:06;98227.25;;;14.97;100.00
61035;BME280;46916;40.564;-7.958;2023-11-18T01:11:07;98218.25;;;14.99;100.00
61035;BME280;46916;40.564;-7.958;2023-11-18T01:13:09;98219.91;;;15.00;100.00
61035;BME280;46916;40.564;-7.958;2023-11-18T01:15:10;98221.72;;;15.00;100.00
61035;BME280;46916;40.564;-7.958;2023-11-18T01:17:10;98218.38;;;14.98;100.00
61035;BME280;46916;40.564;-7.958;2023-11-18T01:19:11;98221.88;;;14.98;100.00
61035;BME280;46916;40.564;-7.958;2023-11-18T01:21:13;98221.88;;;14.98;100.00
61035;BME280;46916;40.564;-7.958;2023-11-18T01:23:14;98221.88;;;14.98;100.00
61035;BME280;46916;40.564;-7.958;2023-11-18T01:25:15;98221.16;;;14.96;100.00
61035;BME280;46916;40.564;-7.958;2023-11-18T01:27:19;98228.25;;;14.96;100.00
61035;BME280;46916;40.564;-7.958;2023-11-18T01:29:20;98229.91;;;14.97;100.00
61035;BME280;46916;40.564;-7.958;2023-11-18T01:31:22;98218.38;;;14.98;100.00
61035;BME280;46916;40.564;-7.958;2023-11-18T01:33:23;98218.25;;;14.99;100.00
61035;BME280;46916;40.564;-7.958;2023-11-18T01:35:24;98212.81;;;15.01;100.00
61035;BME280;46916;40.564;-7.958;2023-11-18T01:37:27;98216.19;;;15.03;100.00
61035;BME280;46916;40.564;-7.958;2023-11-18T01:39:27;98210.06;;;15.02;100.00
61035;BME280;46916;40.564;-7.958;2023-11-18T01:41:30;98207.28;;;15.04;100.00
61035;BME280;46916;40.564;-7.958;2023-11-18T01:43:33;98196.31;;;15.08;100.00
61035;BME280;46916;40.564;-7.958;2023-11-18T01:45:33;98199.78;;;15.09;100.00
61035;BME280;46916;40.564;-7.958;2023-11-18T01:47:34;98196.03;;;15.11;100.00
61035;BME280;46916;40.564;-7.958;2023-11-18T01:49:37;98200.47;;;15.11;100.00
61035;BME280;46916;40.564;-7.958;2023-11-18T01:51:41;98194.66;;;15.07;100.00
61035;BME280;46916;40.564;-7.958;2023-11-18T01:53:44;98192.56;;;15.11;100.00
61035;BME280;46916;40.564;-7.958;2023-11-18T01:55:44;98195.31;;;15.09;100.00
61035;BME280;46916;40.564;-7.958;2023-11-18T01:57:46;98189.38;;;15.07;100.00
61035;BME280;46916;40.564;-7.958;2023-11-18T01:59:47;98188.66;;;15.05;100.00
61035;BME280;46916;40.564;-7.958;2023-11-18T02:01:52;98183.81;;;15.01;100.00
61035;BME280;46916;40.564;-7.958;2023-11-18T02:03:59;98188.25;;;15.00;100.00
61035;BME280;46916;40.564;-7.958;2023-11-18T02:06:00;98187.28;;;15.01;100.00
61035;BME280;46916;40.564;-7.958;2023-11-18T02:08:02;98189.34;;;14.98;100.00
61035;BME280;46916;40.564;-7.958;2023-11-18T02:10:09;98184.06;;;14.98;100.00
61035;BME280;46916;40.564;-7.958;2023-11-18T02:12:19;98178.94;;;14.96;100.00
61035;BME280;46916;40.564;-7.958;2023-11-18T02:14:25;98180.19;;;14.92;100.00
61035;BME280;46916;40.564;-7.958;2023-11-18T02:16:27;98178.53;;;14.81;100.00
61035;BME280;46916;40.564;-7.958;2023-11-18T02:18:30;98187.84;;;14.76;100.00
61035;BME280;46916;40.564;-7.958;2023-11-18T02:20:32;98183.13;;;14.70;100.00
61035;BME280;46916;40.564;-7.958;2023-11-18T02:22:34;98174.66;;;14.66;100.00
61035;BME280;46916;40.564;-7.958;2023-11-18T02:24:34;98172.53;;;14.60;100.00
61035;BME280;46916;40.564;-7.958;2023-11-18T02:26:38;98172.28;;;14.53;100.00
61035;BME280;46916;40.564;-7.958;2023-11-18T02:28:38;98172.09;;;14.45;100.00
61035;BME280;46916;40.564;-7.958;2023-11-18T02:30:40;98171.53;;;14.42;100.00
61035;BME280;46916;40.564;-7.958;2023-11-18T02:32:50;98165.13;;;14.34;100.00
61035;BME280;46916;40.564;-7.958;2023-11-18T02:37:02;98169.53;;;14.24;100.00
61035;BME280;46916;40.564;-7.958;2023-11-18T02:39:12;98172.44;;;14.21;100.00
61035;BME280;46916;40.564;-7.958;2023-11-18T02:41:18;98170.06;;;14.18;100.00
61035;BME280;46916;40.564;-7.958;2023-11-18T02:43:20;98166.63;;;14.18;100.00
61035;BME280;46916;40.564;-7.958;2023-11-18T02:45:21;98168.28;;;14.19;100.00
61035;BME280;46916;40.564;-7.958;2023-11-18T02:47:22;98163.72;;;14.21;100.00
61035;BME280;46916;40.564;-7.958;2023-11-18T02:49:23;98153.59;;;14.26;100.00
61035;BME280;46916;40.564;-7.958;2023-11-18T02:51:23;98160.13;;;14.31;100.00
61035;BME280;46916;40.564;-7.958;2023-11-18T02:53:25;98150.69;;;14.29;100.00
61035;BME280;46916;40.564;-7.958;2023-11-18T02:55:25;98156.66;;;14.41;100.00
61035;BME280;46916;40.564;-7.958;2023-11-18T02:57:26;98155.56;;;14.43;100.00
61035;BME280;46916;40.564;-7.958;2023-11-18T02:59:27;98158.91;;;14.45;100.00
61035;BME280;46916;40.564;-7.958;2023-11-18T03:01:31;98151.56;;;14.49;100.00
61035;BME280;46916;40.564;-7.958;2023-11-18T03:03:31;98151.19;;;14.53;100.00
61035;BME280;46916;40.564;-7.958;2023-11-18T03:05:32;98146.75;;;14.54;100.00
61035;BME280;46916;40.564;-7.958;2023-11-18T03:07:33;98149.09;;;14.57;100.00
61035;BME280;46916;40.564;-7.958;2023-11-18T03:09:33;98152.16;;;14.62;100.00
61035;BME280;46916;40.564;-7.958;2023-11-18T03:11:35;98152.84;;;14.64;100.00
61035;BME280;46916;40.564;-7.958;2023-11-18T03:13:37;98150.09;;;14.66;100.00
61035;BME280;46916;40.564;-7.958;2023-11-18T03:15:38;98152.56;;;14.67;100.00
61035;BME280;46916;40.564;-7.958;2023-11-18T03:17:39;98145.50;;;14.68;100.00
61035;BME280;46916;40.564;-7.958;2023-11-18T03:19:41;98137.75;;;14.66;100.00
61035;BME280;46916;40.564;-7.958;2023-11-18T03:21:42;98138.41;;;14.68;100.00
61035;BME280;46916;40.564;-7.958;2023-11-18T03:23:43;98144.25;;;14.72;100.00
61035;BME280;46916;40.564;-7.958;2023-11-18T03:25:44;98149.38;;;14.73;100.00
61035;BME280;46916;40.564;-7.958;2023-11-18T03:27:45;98145.78;;;14.74;100.00
61035;BME280;46916;40.564;-7.958;2023-11-18T03:29:46;98142.31;;;14.74;100.00
61035;BME280;46916;40.564;-7.958;2023-11-18T03:31:46;98149.25;;;14.75;100.00
61035;BME280;46916;40.564;-7.958;2023-11-18T03:33:49;98144.97;;;14.74;100.00
61035;BME280;46916;40.564;-7.958;2023-11-18T03:35:49;98140.63;;;14.73;100.00
61035;BME280;46916;40.564;-7.958;2023-11-18T03:37:50;98138.97;;;14.72;100.00
61035;BME280;46916;40.564;-7.958;2023-11-18T03:39:52;98134.41;;;14.74;100.00
61035;BME280;46916;40.564;-7.958;2023-11-18T03:41:53;98136.06;;;14.75;100.00
61035;BME280;46916;40.564;-7.958;2023-11-18T03:43:54;98133.03;;;14.79;100.00
61035;BME280;46916;40.564;-7.958;2023-11-18T03:45:54;98127.47;;;14.82;100.00
61035;BME280;46916;40.564;-7.958;2023-11-18T03:47:56;98122.03;;;14.84;100.00
61035;BME280;46916;40.564;-7.958;2023-11-18T03:49:57;98125.50;;;14.84;100.00
61035;BME280;46916;40.564;-7.958;2023-11-18T03:51:59;98126.34;;;14.85;100.00
61035;BME280;46916;40.564;-7.958;2023-11-18T03:54:00;98117.47;;;14.86;100.00
61035;BME280;46916;40.564;-7.958;2023-11-18T03:56:01;98135.78;;;14.88;100.00
61035;BME280;46916;40.564;-7.958;2023-11-18T03:58:02;98126.06;;;14.88;100.00
61035;BME280;46916;40.564;-7.958;2023-11-18T04:00:04;98120.78;;;14.88;100.00
61035;BME280;46916;40.564;-7.958;2023-11-18T04:02:10;98115.38;;;14.90;100.00
61035;BME280;46916;40.564;-7.958;2023-11-18T04:04:11;98125.91;;;14.90;100.00
61035;BME280;46916;40.564;-7.958;2023-11-18T04:06:12;98114.53;;;14.89;100.00
61035;BME280;46916;40.564;-7.958;2023-11-18T04:08:14;98112.59;;;14.91;100.00
61035;BME280;46916;40.564;-7.958;2023-11-18T04:10:14;98110.81;;;14.92;100.00
61035;BME280;46916;40.564;-7.958;2023-11-18T04:12:15;98115.25;;;14.91;100.00
61035;BME280;46916;40.564;-7.958;2023-11-18T04:14:16;98122.44;;;14.89;100.00
61035;BME280;46916;40.564;-7.958;2023-11-18T04:16:17;98110.50;;;14.85;100.00
61035;BME280;46916;40.564;-7.958;2023-11-18T04:18:17;98122.31;;;14.81;100.00
61035;BME280;46916;40.564;-7.958;2023-11-18T04:20:19;98125.25;;;14.78;100.00
61035;BME280;46916;40.564;-7.958;2023-11-18T04:22:20;98119.44;;;14.74;100.00
61035;BME280;46916;40.564;-7.958;2023-11-18T04:24:20;98125.25;;;14.68;100.00
61035;BME280;46916;40.564;-7.958;2023-11-18T04:26:21;98132.59;;;14.65;100.00
61035;BME280;46916;40.564;-7.958;2023-11-18T04:28:21;98130.94;;;14.54;100.00
61035;BME280;46916;40.564;-7.958;2023-11-18T04:30:22;98136.28;;;14.43;100.00
61035;BME280;46916;40.564;-7.958;2023-11-18T04:32:23;98125.44;;;14.36;100.00
61035;BME280;46916;40.564;-7.958;2023-11-18T04:34:23;98132.38;;;14.27;100.00
61035;BME280;46916;40.564;-7.958;2023-11-18T04:36:25;98121.84;;;14.18;100.00
61035;BME280;46916;40.564;-7.958;2023-11-18T04:38:27;98133.88;;;14.20;100.00
61035;BME280;46916;40.564;-7.958;2023-11-18T04:40:27;98132.94;;;14.21;100.00
61035;BME280;46916;40.564;-7.958;2023-11-18T04:42:28;98132.09;;;14.21;100.00
61035;BME280;46916;40.564;-7.958;2023-11-18T04:44:30;98133.88;;;14.20;100.00
61035;BME280;46916;40.564;-7.958;2023-11-18T04:46:31;98128.75;;;14.19;100.00
61035;BME280;46916;40.564;-7.958;2023-11-18T04:48:32;98123.91;;;14.14;100.00
61035;BME280;46916;40.564;-7.958;2023-11-18T04:50:33;98126.78;;;14.11;100.00
61035;BME280;46916;40.564;-7.958;2023-11-18T04:52:34;98136.75;;;14.07;100.00
61035;BME280;46916;40.564;-7.958;2023-11-18T04:54:35;98130.09;;;14.03;100.00
61035;BME280;46916;40.564;-7.958;2023-11-18T04:56:36;98133.72;;;14.02;100.00
61035;BME280;46916;40.564;-7.958;2023-11-18T04:58:38;98134.13;;;13.98;100.00
61035;BME280;46916;40.564;-7.958;2023-11-18T05:00:39;98132.44;;;13.97;100.00
61035;BME280;46916;40.564;-7.958;2023-11-18T05:02:40;98134.38;;;13.95;100.00
61035;BME280;46916;40.564;-7.958;2023-11-18T05:04:41;98134.25;;;13.96;100.00
61035;BME280;46916;40.564;-7.958;2023-11-18T05:06:42;98133.13;;;13.99;100.00
61035;BME280;46916;40.564;-7.958;2023-11-18T05:08:43;98132.31;;;13.98;100.00
61035;BME280;46916;40.564;-7.958;2023-11-18T05:10:49;98132.16;;;14.00;100.00
61035;BME280;46916;40.564;-7.958;2023-11-18T05:12:50;98134.53;;;14.03;100.00
61035;BME280;46916;40.564;-7.958;2023-11-18T05:14:56;98134.13;;;13.98;100.00
61035;BME280;46916;40.564;-7.958;2023-11-18T05:16:57;98133.53;;;13.94;100.00
61035;BME280;46916;40.564;-7.958;2023-11-18T05:18:57;98135.19;;;13.95;100.00
61035;BME280;46916;40.564;-7.958;2023-11-18T05:20:58;98139.22;;;13.99;100.00
61035;BME280;46916;40.564;-7.958;2023-11-18T05:22:59;98139.94;;;14.01;100.00
61035;BME280;46916;40.564;-7.958;2023-11-18T05:24:59;98143.25;;;14.03;100.00
61035;BME280;46916;40.564;-7.958;2023-11-18T05:27:00;98146.47;;;14.07;100.00
61035;BME280;46916;40.564;-7.958;2023-11-18T05:29:02;98138.72;;;14.05;100.00
61035;BME280;46916;40.564;-7.958;2023-11-18T05:31:02;98137.44;;;14.00;100.00
61035;BME280;46916;40.564;-7.958;2023-11-18T05:33:04;98145.47;;;13.98;100.00
61035;BME280;46916;40.564;-7.958;2023-11-18T05:35:06;98147.69;;;13.93;100.00
61035;BME280;46916;40.564;-7.958;2023-11-18T05:37:07;98146.72;;;13.94;100.00
61035;BME280;46916;40.564;-7.958;2023-11-18T05:39:07;98137.97;;;13.94;100.00
61035;BME280;46916;40.564;-7.958;2023-11-18T05:41:09;98136.44;;;13.91;100.00
61035;BME280;46916;40.564;-7.958;2023-11-18T05:43:16;98146.28;;;13.89;100.00
61035;BME280;46916;40.564;-7.958;2023-11-18T05:45:20;98146.13;;;13.91;100.00
61035;BME280;46916;40.564;-7.958;2023-11-18T05:47:32;98147.78;;;13.92;100.00
61035;BME280;46916;40.564;-7.958;2023-11-18T05:49:35;98151.16;;;13.94;100.00
61035;BME280;46916;40.564;-7.958;2023-11-18T05:51:36;98144.78;;;13.96;100.00
61035;BME280;46916;40.564;-7.958;2023-11-18T05:53:40;98148.09;;;13.98;100.00
61035;BME280;46916;40.564;-7.958;2023-11-18T05:55:42;98147.97;;;14.00;100.00
61035;BME280;46916;40.564;-7.958;2023-11-18T05:57:42;98141.59;;;14.02;100.00
61035;BME280;46916;40.564;-7.958;2023-11-18T05:59:45;98145.50;;;14.08;100.00
61035;BME280;46916;40.564;-7.958;2023-11-18T06:01:49;98136.50;;;14.10;100.00
61035;BME280;46916;40.564;-7.958;2023-11-18T06:03:49;98140.69;;;14.13;100.00
61035;BME280;46916;40.564;-7.958;2023-11-18T06:05:51;98142.47;;;14.12;100.00
61035;BME280;46916;40.564;-7.958;2023-11-18T06:07:52;98148.41;;;14.05;100.00
61035;BME280;46916;40.564;-7.958;2023-11-18T06:09:53;98139.22;;;13.99;100.00
61035;BME280;46916;40.564;-7.958;2023-11-18T06:11:54;98149.34;;;13.94;100.00
61035;BME280;46916;40.564;-7.958;2023-11-18T06:13:55;98146.97;;;13.91;100.00
61035;BME280;46916;40.564;-7.958;2023-11-18T06:15:55;98147.38;;;13.86;100.00
61035;BME280;46916;40.564;-7.958;2023-11-18T06:17:56;98141.94;;;13.78;100.00
61035;BME280;46916;40.564;-7.958;2023-11-18T06:19:57;98148.81;;;13.70;100.00
61035;BME280;46916;40.564;-7.958;2023-11-18T06:21:57;98150.44;;;13.61;100.00
61035;BME280;46916;40.564;-7.958;2023-11-18T06:23:59;98145.34;;;13.59;100.00
61035;BME280;46916;40.564;-7.958;2023-11-18T06:26:00;98142.81;;;13.58;100.00
61035;BME280;46916;40.564;-7.958;2023-11-18T06:28:01;98145.84;;;13.53;100.00
61035;BME280;46916;40.564;-7.958;2023-11-18T06:30:01;98142.06;;;13.46;100.00
61035;BME280;46916;40.564;-7.958;2023-11-18T06:32:02;98138.41;;;13.37;100.00
61035;BME280;46916;40.564;-7.958;2023-11-18T06:34:04;98147.66;;;13.32;100.00
61035;BME280;46916;40.564;-7.958;2023-11-18T06:36:06;98144.06;;;13.33;100.00
61035;BME280;46916;40.564;-7.958;2023-11-18T06:38:07;98139.06;;;13.30;100.00
61035;BME280;46916;40.564;-7.958;2023-11-18T06:40:13;98143.94;;;13.34;100.00
61035;BME280;46916;40.564;-7.958;2023-11-18T06:42:16;98146.69;;;13.33;100.00
61035;BME280;46916;40.564;-7.958;2023-11-18T06:44:18;98133.69;;;13.31;100.00
61035;BME280;46916;40.564;-7.958;2023-11-18T06:46:28;98135.50;;;13.31;100.00
61035;BME280;46916;40.564;-7.958;2023-11-18T06:48:33;98140.16;;;13.27;100.00
61035;BME280;46916;40.564;-7.958;2023-11-18T06:50:35;98133.94;;;13.28;100.00
61035;BME280;46916;40.564;-7.958;2023-11-18T06:52:39;98138.47;;;13.26;100.00
61035;BME280;46916;40.564;-7.958;2023-11-18T06:54:42;98143.88;;;13.25;100.00
61035;BME280;46916;40.564;-7.958;2023-11-18T06:56:43;98143.41;;;13.20;100.00
61035;BME280;46916;40.564;-7.958;2023-11-18T06:58:44;98144.03;;;13.12;100.00
61035;BME280;46916;40.564;-7.958;2023-11-18T07:00:44;98146.81;;;13.10;100.00
61035;BME280;46916;40.564;-7.958;2023-11-18T07:02:46;98143.47;;;13.08;100.00
61035;BME280;46916;40.564;-7.958;2023-11-18T07:04:47;98151.94;;;13.12;100.00
61035;BME280;46916;40.564;-7.958;2023-11-18T07:06:49;98146.16;;;13.18;100.00
61035;BME280;46916;40.564;-7.958;2023-11-18T07:08:50;98146.50;;;13.25;100.00
61035;BME280;46916;40.564;-7.958;2023-11-18T07:10:51;98149.47;;;13.31;100.00
61035;BME280;46916;40.564;-7.958;2023-11-18T07:12:51;98140.59;;;13.32;100.00
61035;BME280;46916;40.564;-7.958;2023-11-18T07:14:52;98149.31;;;13.33;100.00
61035;BME280;46916;40.564;-7.958;2023-11-18T07:16:54;98151.97;;;13.33;100.00
61035;BME280;46916;40.564;-7.958;2023-11-18T07:18:55;98149.47;;;13.31;100.00
61035;BME280;46916;40.564;-7.958;2023-11-18T07:20:56;98157.81;;;13.36;100.00
61035;BME280;46916;40.564;-7.958;2023-11-18T07:22:56;98150.88;;;13.35;100.00
61035;BME280;46916;40.564;-7.958;2023-11-18T07:24:58;98156.97;;;13.36;100.00
61035;BME280;46916;40.564;-7.958;2023-11-18T07:26:58;98155.03;;;13.38;100.00
61035;BME280;46916;40.564;-7.958;2023-11-18T07:29:00;98159.72;;;13.34;100.00
61035;BME280;46916;40.564;-7.958;2023-11-18T07:31:01;98160.81;;;13.32;100.00
61035;BME280;46916;40.564;-7.958;2023-11-18T07:33:05;98157.22;;;13.33;100.00
61035;BME280;46916;40.564;-7.958;2023-11-18T07:35:06;98156.03;;;13.47;100.00
61035;BME280;46916;40.564;-7.958;2023-11-18T07:37:09;98158.84;;;13.76;100.00
61035;BME280;46916;40.564;-7.958;2023-11-18T07:39:10;98156.72;;;14.00;100.00
61035;BME280;46916;40.564;-7.958;2023-11-18T07:41:16;98156.22;;;14.26;100.00
61035;BME280;46916;40.564;-7.958;2023-11-18T07:43:27;98157.78;;;14.38;100.00
61035;BME280;46916;40.564;-7.958;2023-11-18T07:45:38;98161.00;;;14.42;100.00
61035;BME280;46916;40.564;-7.958;2023-11-18T07:47:39;98165.84;;;14.46;100.00
61035;BME280;46916;40.564;-7.958;2023-11-18T07:49:41;98171.31;;;14.54;99.52
61035;BME280;46916;40.564;-7.958;2023-11-18T07:51:41;98168.53;;;14.66;98.57
61035;BME280;46916;40.564;-7.958;2023-11-18T07:53:42;98172.56;;;14.70;98.05
61035;BME280;46916;40.564;-7.958;2023-11-18T07:55:43;98175.22;;;14.70;97.99
61035;BME280;46916;40.564;-7.958;2023-11-18T07:57:44;98179.25;;;14.74;97.50
61035;BME280;46916;40.564;-7.958;2023-11-18T07:59:45;98188.53;;;14.78;97.52
61035;BME280;46916;40.564;-7.958;2023-11-18T08:01:46;98189.22;;;14.90;96.82
61035;BME280;46916;40.564;-7.958;2023-11-18T08:03:47;98190.19;;;15.08;96.26
61035;BME280;46916;40.564;-7.958;2023-11-18T08:05:48;98200.75;;;15.27;95.62
61035;BME280;46916;40.564;-7.958;2023-11-18T08:07:49;98196.84;;;15.41;94.84
61035;BME280;46916;40.564;-7.958;2023-11-18T08:09:50;98198.88;;;15.57;94.24
61035;BME280;46916;40.564;-7.958;2023-11-18T08:11:51;98191.06;;;15.75;93.39
61035;BME280;46916;40.564;-7.958;2023-11-18T08:13:51;98205.22;;;15.93;92.59
61035;BME280;46916;40.564;-7.958;2023-11-18T08:15:53;98209.06;;;16.08;91.33
61035;BME280;46916;40.564;-7.958;2023-11-18T08:17:54;98202.28;;;16.24;90.53
61035;BME280;46916;40.564;-7.958;2023-11-18T08:19:55;98213.38;;;16.37;89.84
61035;BME280;46916;40.564;-7.958;2023-11-18T08:21:56;98207.72;;;16.50;89.29
61035;BME280;46916;40.564;-7.958;2023-11-18T08:23:58;98207.22;;;16.64;88.60
61035;BME280;46916;40.564;-7.958;2023-11-18T08:26:00;98206.75;;;16.78;88.00
61035;BME280;46916;40.564;-7.958;2023-11-18T08:28:02;98214.31;;;16.91;87.48
61035;BME280;46916;40.564;-7.958;2023-11-18T08:30:04;98215.38;;;16.98;86.76
61035;BME280;46916;40.564;-7.958;2023-11-18T08:32:11;98218.31;;;16.95;87.01
61035;BME280;46916;40.564;-7.958;2023-11-18T08:34:12;98218.53;;;17.02;86.80
61035;BME280;46916;40.564;-7.958;2023-11-18T08:36:14;98219.75;;;17.07;86.24
61035;BME280;46916;40.564;-7.958;2023-11-18T08:38:15;98221.56;;;17.07;86.57
61035;BME280;46916;40.564;-7.958;2023-11-18T08:40:15;98226.13;;;17.15;86.22
61035;BME280;46916;40.564;-7.958;2023-11-18T08:42:16;98223.13;;;17.18;85.71
61035;BME280;46916;40.564;-7.958;2023-11-18T08:44:17;98225.03;;;17.25;85.73
61035;BME280;46916;40.564;-7.958;2023-11-18T08:46:18;98232.06;;;17.34;85.29
61035;BME280;46916;40.564;-7.958;2023-11-18T08:48:18;98227.00;;;17.41;85.29
61035;BME280;46916;40.564;-7.958;2023-11-18T08:50:19;98232.97;;;17.43;84.70
61035;BME280;46916;40.564;-7.958;2023-11-18T08:52:24;98238.09;;;17.45;84.94
61035;BME280;46916;40.564;-7.958;2023-11-18T08:54:26;98230.00;;;17.46;85.20
61035;BME280;46916;40.564;-7.958;2023-11-18T08:56:39;98242.56;;;17.44;84.81
61035;BME280;46916;40.564;-7.958;2023-11-18T08:58:44;98238.09;;;17.45;84.86
61035;BME280;46916;40.564;-7.958;2023-11-18T09:00:51;98244.06;;;17.47;85.07
61035;BME280;46916;40.564;-7.958;2023-11-18T09:02:54;98247.56;;;17.47;85.08
61035;BME280;46916;40.564;-7.958;2023-11-18T09:04:55;98247.25;;;17.50;85.06
61035;BME280;46916;40.564;-7.958;2023-11-18T09:06:58;98256.94;;;17.60;85.56
61035;BME280;46916;40.564;-7.958;2023-11-18T09:09:00;98254.47;;;17.66;85.39
61035;BME280;46916;40.564;-7.958;2023-11-18T09:11:11;98252.06;;;17.73;84.93
61035;BME280;46916;40.564;-7.958;2023-11-18T09:13:15;98255.41;;;17.75;84.75
61035;BME280;46916;40.564;-7.958;2023-11-18T09:15:15;98252.06;;;17.73;84.91
61035;BME280;46916;40.564;-7.958;2023-11-18T09:17:22;98254.72;;;17.73;84.87
61035;BME280;46916;40.564;-7.958;2023-11-18T09:19:23;98260.00;;;17.73;84.70
61035;BME280;46916;40.564;-7.958;2023-11-18T09:21:24;98261.31;;;17.69;84.74
61035;BME280;46916;40.564;-7.958;2023-11-18T09:23:31;98263.25;;;17.67;85.19
61035;BME280;46916;40.564;-7.958;2023-11-18T09:25:32;98266.25;;;17.64;85.52
61035;BME280;46916;40.564;-7.958;2023-11-18T09:27:33;98267.19;;;17.63;86.03
61035;BME280;46916;40.564;-7.958;2023-11-18T09:29:33;98265.25;;;17.65;85.49
61035;BME280;46916;40.564;-7.958;2023-11-18T09:31:35;98271.53;;;17.64;86.18
61035;BME280;46916;40.564;-7.958;2023-11-18T09:33:37;98273.50;;;17.62;85.90
61035;BME280;46916;40.564;-7.958;2023-11-18T09:35:40;98270.13;;;17.51;86.26
61035;BME280;46916;40.564;-7.958;2023-11-18T09:37:41;98278.66;;;17.45;86.43
61035;BME280;46916;40.564;-7.958;2023-11-18T09:39:42;98272.69;;;17.43;85.68
61035;BME280;46916;40.564;-7.958;2023-11-18T09:41:46;98274.28;;;17.36;85.76
61035;BME280;46916;40.564;-7.958;2023-11-18T09:43:48;98271.09;;;17.32;86.23
61035;BME280;46916;40.564;-7.958;2023-11-18T09:46:05;98277.22;;;17.33;85.52
61035;BME280;46916;40.564;-7.958;2023-11-18T09:48:14;98277.16;;;17.25;86.05
61035;BME280;46916;40.564;-7.958;2023-11-18T09:50:18;98268.28;;;17.34;86.93
61035;BME280;46916;40.564;-7.958;2023-11-18T09:52:22;98276.31;;;17.42;86.73
61035;BME280;46916;40.564;-7.958;2023-11-18T09:54:33;98279.19;;;17.49;86.44
61035;BME280;46916;40.564;-7.958;2023-11-18T09:58:53;98272.25;;;17.74;87.29
61035;BME280;46916;40.564;-7.958;2023-11-18T10:00:58;98285.28;;;17.85;87.45
61035;BME280;46916;40.564;-7.958;2023-11-18T10:03:02;98278.75;;;17.97;87.45
61035;BME280;46916;40.564;-7.958;2023-11-18T10:05:04;98279.63;;;18.06;87.20
61035;BME280;46916;40.564;-7.958;2023-11-18T10:07:12;98278.34;;;18.10;86.95
61035;BME280;46916;40.564;-7.958;2023-11-18T10:09:17;98277.56;;;18.18;87.48
61035;BME280;46916;40.564;-7.958;2023-11-18T10:11:19;98281.25;;;18.25;87.03
61035;BME280;46916;40.564;-7.958;2023-11-18T10:13:23;98279.47;;;18.34;87.66
61035;BME280;46916;40.564;-7.958;2023-11-18T10:15:24;98274.69;;;18.37;87.11
61035;BME280;46916;40.564;-7.958;2023-11-18T10:17:25;98275.69;;;18.44;86.85
61035;BME280;46916;40.564;-7.958;2023-11-18T10:19:56;98277.03;;;18.48;87.59
61035;BME280;46916;40.564;-7.958;2023-11-18T10:21:57;98279.69;;;18.48;86.67
61035;BME280;46916;40.564;-7.958;2023-11-18T10:24:00;98276.88;;;18.50;87.41
61035;BME280;46916;40.564;-7.958;2023-11-18T10:26:05;98278.72;;;18.49;87.77
61035;BME280;46916;40.564;-7.958;2023-11-18T10:28:07;98275.38;;;18.47;88.31
61035;BME280;46916;40.564;-7.958;2023-11-18T10:30:13;98278.84;;;18.48;89.02
61035;BME280;46916;40.564;-7.958;2023-11-18T10:32:19;98271.91;;;18.47;89.71
61035;BME280;46916;40.564;-7.958;2023-11-18T10:34:21;98273.53;;;18.48;89.87
61035;BME280;46916;40.564;-7.958;2023-11-18T10:36:23;98273.41;;;18.49;90.02